sensor_id;sensor_type;location;lat;lon;timestamp;P1;durP1;ratioP1;P2;durP2;ratioP2
69207;SDS011;56321;47.662;8.878;2023-03-04T00:00:50;42.30;;;19.77;;
69207;SDS011;56321;47.662;8.878;2023-03-04T00:03:15;41.30;;;19.67;;
69207;SDS011;56321;47.662;8.878;2023-03-04T00:05:40;41.43;;;19.67;;
69207;SDS011;56321;47.662;8.878;2023-03-04T00:08:06;43.00;;;20.17;;
69207;SDS011;56321;47.662;8.878;2023-03-04T00:10:31;40.87;;;19.53;;
69207;SDS011;56321;47.662;8.878;2023-03-04T00:12:56;44.20;;;20.87;;
69207;SDS011;56321;47.662;8.878;2023-03-04T00:15:22;46.78;;;20.85;;
69207;SDS011;56321;47.662;8.878;2023-03-04T00:17:47;40.57;;;19.80;;
69207;SDS011;56321;47.662;8.878;2023-03-04T00:20:13;41.13;;;19.23;;
69207;SDS011;56321;47.662;8.878;2023-03-04T00:22:38;42.63;;;19.35;;
69207;SDS011;56321;47.662;8.878;2023-03-04T00:25:04;37.93;;;19.07;;
69207;SDS011;56321;47.662;8.878;2023-03-04T00:27:30;37.80;;;19.73;;
69207;SDS011;56321;47.662;8.878;2023-03-04T00:29:55;40.37;;;19.67;;
69207;SDS011;56321;47.662;8.878;2023-03-04T00:32:21;39.80;;;19.60;;
69207;SDS011;56321;47.662;8.878;2023-03-04T00:34:46;39.80;;;18.77;;
69207;SDS011;56321;47.662;8.878;2023-03-04T00:37:12;43.13;;;20.25;;
69207;SDS011;56321;47.662;8.878;2023-03-04T00:39:37;39.27;;;18.97;;
69207;SDS011;56321;47.662;8.878;2023-03-04T00:42:02;41.37;;;19.90;;
69207;SDS011;56321;47.662;8.878;2023-03-04T00:44:28;41.70;;;19.83;;
69207;SDS011;56321;47.662;8.878;2023-03-04T00:46:53;41.07;;;19.93;;
69207;SDS011;56321;47.662;8.878;2023-03-04T00:49:18;44.93;;;20.60;;
69207;SDS011;56321;47.662;8.878;2023-03-04T00:51:44;44.10;;;20.73;;
69207;SDS011;56321;47.662;8.878;2023-03-04T00:54:09;42.13;;;20.40;;
69207;SDS011;56321;47.662;8.878;2023-03-04T00:56:34;43.00;;;19.60;;
69207;SDS011;56321;47.662;8.878;2023-03-04T00:59:00;52.60;;;23.60;;
69207;SDS011;56321;47.662;8.878;2023-03-04T01:01:25;49.23;;;21.37;;
69207;SDS011;56321;47.662;8.878;2023-03-04T01:03:51;45.90;;;21.45;;
69207;SDS011;56321;47.662;8.878;2023-03-04T01:06:16;44.63;;;20.70;;
69207;SDS011;56321;47.662;8.878;2023-03-04T01:08:41;44.20;;;21.77;;
69207;SDS011;56321;47.662;8.878;2023-03-04T01:11:07;43.00;;;20.83;;
69207;SDS011;56321;47.662;8.878;2023-03-04T01:13:32;44.20;;;21.00;;
69207;SDS011;56321;47.662;8.878;2023-03-04T01:15:58;41.40;;;19.15;;
69207;SDS011;56321;47.662;8.878;2023-03-04T01:18:23;43.17;;;19.80;;
69207;SDS011;56321;47.662;8.878;2023-03-04T01:20:49;40.73;;;19.10;;
69207;SDS011;56321;47.662;8.878;2023-03-04T01:23:14;39.58;;;19.63;;
69207;SDS011;56321;47.662;8.878;2023-03-04T01:25:40;41.80;;;19.70;;
69207;SDS011;56321;47.662;8.878;2023-03-04T01:28:05;43.30;;;20.70;;
69207;SDS011;56321;47.662;8.878;2023-03-04T01:30:30;43.80;;;19.87;;
69207;SDS011;56321;47.662;8.878;2023-03-04T01:32:56;40.37;;;19.67;;
69207;SDS011;56321;47.662;8.878;2023-03-04T01:35:21;44.77;;;20.37;;
69207;SDS011;56321;47.662;8.878;2023-03-04T01:37:47;44.87;;;20.93;;
69207;SDS011;56321;47.662;8.878;2023-03-04T01:40:12;44.17;;;19.97;;
69207;SDS011;56321;47.662;8.878;2023-03-04T01:42:38;43.40;;;19.63;;
69207;SDS011;56321;47.662;8.878;2023-03-04T01:45:04;42.15;;;19.92;;
69207;SDS011;56321;47.662;8.878;2023-03-04T01:47:31;45.20;;;20.23;;
69207;SDS011;56321;47.662;8.878;2023-03-04T01:49:57;41.47;;;18.92;;
69207;SDS011;56321;47.662;8.878;2023-03-04T01:52:27;43.77;;;19.80;;
69207;SDS011;56321;47.662;8.878;2023-03-04T01:54:52;43.53;;;18.65;;
69207;SDS011;56321;47.662;8.878;2023-03-04T01:57:18;40.60;;;19.23;;
69207;SDS011;56321;47.662;8.878;2023-03-04T01:59:45;42.13;;;18.83;;
69207;SDS011;56321;47.662;8.878;2023-03-04T02:02:11;43.40;;;19.80;;
69207;SDS011;56321;47.662;8.878;2023-03-04T02:04:37;40.20;;;18.60;;
69207;SDS011;56321;47.662;8.878;2023-03-04T02:07:04;43.28;;;20.08;;
69207;SDS011;56321;47.662;8.878;2023-03-04T02:09:30;40.77;;;19.27;;
69207;SDS011;56321;47.662;8.878;2023-03-04T02:11:57;40.17;;;18.90;;
69207;SDS011;56321;47.662;8.878;2023-03-04T02:14:23;38.40;;;19.00;;
69207;SDS011;56321;47.662;8.878;2023-03-04T02:16:49;40.90;;;18.93;;
69207;SDS011;56321;47.662;8.878;2023-03-04T02:22:02;42.47;;;19.20;;
69207;SDS011;56321;47.662;8.878;2023-03-04T02:24:44;41.33;;;19.30;;
69207;SDS011;56321;47.662;8.878;2023-03-04T02:27:13;43.28;;;20.20;;
69207;SDS011;56321;47.662;8.878;2023-03-04T02:29:39;39.97;;;18.77;;
69207;SDS011;56321;47.662;8.878;2023-03-04T02:32:05;39.33;;;19.27;;
69207;SDS011;56321;47.662;8.878;2023-03-04T02:34:32;42.03;;;19.80;;
69207;SDS011;56321;47.662;8.878;2023-03-04T02:36:59;41.30;;;19.52;;
69207;SDS011;56321;47.662;8.878;2023-03-04T02:39:42;42.53;;;20.17;;
69207;SDS011;56321;47.662;8.878;2023-03-04T02:42:08;39.43;;;18.93;;
69207;SDS011;56321;47.662;8.878;2023-03-04T02:44:35;42.33;;;19.67;;
69207;SDS011;56321;47.662;8.878;2023-03-04T02:47:03;40.13;;;19.25;;
69207;SDS011;56321;47.662;8.878;2023-03-04T02:49:31;42.70;;;20.63;;
69207;SDS011;56321;47.662;8.878;2023-03-04T02:51:59;40.30;;;18.55;;
69207;SDS011;56321;47.662;8.878;2023-03-04T02:54:32;43.40;;;19.37;;
69207;SDS011;56321;47.662;8.878;2023-03-04T02:56:59;39.13;;;19.20;;
69207;SDS011;56321;47.662;8.878;2023-03-04T02:59:26;42.35;;;19.35;;
69207;SDS011;56321;47.662;8.878;2023-03-04T03:01:52;42.07;;;18.93;;
69207;SDS011;56321;47.662;8.878;2023-03-04T03:04:17;43.20;;;19.42;;
69207;SDS011;56321;47.662;8.878;2023-03-04T03:06:45;44.72;;;19.65;;
69207;SDS011;56321;47.662;8.878;2023-03-04T03:09:11;44.20;;;19.83;;
69207;SDS011;56321;47.662;8.878;2023-03-04T03:11:36;40.80;;;19.73;;
69207;SDS011;56321;47.662;8.878;2023-03-04T03:14:02;44.43;;;19.77;;
69207;SDS011;56321;47.662;8.878;2023-03-04T03:16:27;42.10;;;20.15;;
69207;SDS011;56321;47.662;8.878;2023-03-04T03:18:53;43.93;;;20.63;;
69207;SDS011;56321;47.662;8.878;2023-03-04T03:21:18;41.20;;;19.07;;
69207;SDS011;56321;47.662;8.878;2023-03-04T03:23:44;43.03;;;20.30;;
69207;SDS011;56321;47.662;8.878;2023-03-04T03:26:09;41.40;;;19.40;;
69207;SDS011;56321;47.662;8.878;2023-03-04T03:28:34;43.93;;;19.90;;
69207;SDS011;56321;47.662;8.878;2023-03-04T03:31:00;40.13;;;18.83;;
69207;SDS011;56321;47.662;8.878;2023-03-04T03:33:25;44.47;;;20.80;;
69207;SDS011;56321;47.662;8.878;2023-03-04T03:35:50;42.40;;;19.43;;
69207;SDS011;56321;47.662;8.878;2023-03-04T03:38:16;43.42;;;19.65;;
69207;SDS011;56321;47.662;8.878;2023-03-04T03:40:41;44.60;;;20.23;;
69207;SDS011;56321;47.662;8.878;2023-03-04T03:43:07;42.57;;;20.80;;
69207;SDS011;56321;47.662;8.878;2023-03-04T03:45:32;42.03;;;18.87;;
69207;SDS011;56321;47.662;8.878;2023-03-04T03:47:57;44.07;;;19.17;;
69207;SDS011;56321;47.662;8.878;2023-03-04T03:50:23;42.57;;;19.17;;
69207;SDS011;56321;47.662;8.878;2023-03-04T03:52:48;44.57;;;19.90;;
69207;SDS011;56321;47.662;8.878;2023-03-04T03:55:13;39.63;;;18.60;;
69207;SDS011;56321;47.662;8.878;2023-03-04T03:57:39;41.53;;;20.13;;
69207;SDS011;56321;47.662;8.878;2023-03-04T04:00:05;42.33;;;19.63;;
69207;SDS011;56321;47.662;8.878;2023-03-04T04:02:31;44.67;;;19.67;;
69207;SDS011;56321;47.662;8.878;2023-03-04T04:04:56;39.77;;;18.20;;
69207;SDS011;56321;47.662;8.878;2023-03-04T04:07:21;46.23;;;20.43;;
69207;SDS011;56321;47.662;8.878;2023-03-04T04:09:47;45.57;;;20.00;;
69207;SDS011;56321;47.662;8.878;2023-03-04T04:12:13;43.03;;;20.10;;
69207;SDS011;56321;47.662;8.878;2023-03-04T04:14:39;43.45;;;20.00;;
69207;SDS011;56321;47.662;8.878;2023-03-04T04:17:05;46.25;;;19.73;;
69207;SDS011;56321;47.662;8.878;2023-03-04T04:19:30;45.53;;;19.50;;
69207;SDS011;56321;47.662;8.878;2023-03-04T04:21:55;43.60;;;19.67;;
69207;SDS011;56321;47.662;8.878;2023-03-04T04:24:21;40.07;;;18.60;;
69207;SDS011;56321;47.662;8.878;2023-03-04T04:26:46;42.47;;;19.83;;
69207;SDS011;56321;47.662;8.878;2023-03-04T04:29:13;43.33;;;19.43;;
69207;SDS011;56321;47.662;8.878;2023-03-04T04:31:39;41.65;;;19.13;;
69207;SDS011;56321;47.662;8.878;2023-03-04T04:34:04;43.23;;;19.27;;
69207;SDS011;56321;47.662;8.878;2023-03-04T04:36:29;41.70;;;19.50;;
69207;SDS011;56321;47.662;8.878;2023-03-04T04:38:55;44.53;;;20.47;;
69207;SDS011;56321;47.662;8.878;2023-03-04T04:41:22;44.78;;;19.67;;
69207;SDS011;56321;47.662;8.878;2023-03-04T04:43:50;44.30;;;19.48;;
69207;SDS011;56321;47.662;8.878;2023-03-04T04:46:16;43.07;;;19.47;;
69207;SDS011;56321;47.662;8.878;2023-03-04T04:48:42;45.00;;;20.23;;
69207;SDS011;56321;47.662;8.878;2023-03-04T04:51:07;40.10;;;19.07;;
69207;SDS011;56321;47.662;8.878;2023-03-04T04:53:33;45.60;;;20.20;;
69207;SDS011;56321;47.662;8.878;2023-03-04T04:55:59;43.75;;;20.08;;
69207;SDS011;56321;47.662;8.878;2023-03-04T04:58:24;40.70;;;18.33;;
69207;SDS011;56321;47.662;8.878;2023-03-04T05:00:50;43.37;;;20.20;;
69207;SDS011;56321;47.662;8.878;2023-03-04T05:03:15;40.93;;;19.33;;
69207;SDS011;56321;47.662;8.878;2023-03-04T05:05:41;45.57;;;19.37;;
69207;SDS011;56321;47.662;8.878;2023-03-04T05:08:06;44.92;;;20.27;;
69207;SDS011;56321;47.662;8.878;2023-03-04T05:10:31;42.93;;;20.03;;
69207;SDS011;56321;47.662;8.878;2023-03-04T05:12:57;45.73;;;20.47;;
69207;SDS011;56321;47.662;8.878;2023-03-04T05:15:22;45.00;;;19.83;;
69207;SDS011;56321;47.662;8.878;2023-03-04T05:17:47;44.97;;;20.27;;
69207;SDS011;56321;47.662;8.878;2023-03-04T05:20:12;46.30;;;20.50;;
69207;SDS011;56321;47.662;8.878;2023-03-04T05:22:38;45.17;;;20.30;;
69207;SDS011;56321;47.662;8.878;2023-03-04T05:25:03;43.72;;;19.75;;
69207;SDS011;56321;47.662;8.878;2023-03-04T05:27:29;46.00;;;21.17;;
69207;SDS011;56321;47.662;8.878;2023-03-04T05:29:54;49.63;;;21.47;;
69207;SDS011;56321;47.662;8.878;2023-03-04T05:32:23;43.92;;;20.88;;
69207;SDS011;56321;47.662;8.878;2023-03-04T05:34:49;45.33;;;20.60;;
69207;SDS011;56321;47.662;8.878;2023-03-04T05:37:14;46.03;;;20.23;;
69207;SDS011;56321;47.662;8.878;2023-03-04T05:39:39;45.88;;;20.30;;
69207;SDS011;56321;47.662;8.878;2023-03-04T05:42:05;44.10;;;20.07;;
69207;SDS011;56321;47.662;8.878;2023-03-04T05:44:30;44.37;;;20.13;;
69207;SDS011;56321;47.662;8.878;2023-03-04T05:46:55;44.43;;;19.50;;
69207;SDS011;56321;47.662;8.878;2023-03-04T05:49:21;44.43;;;20.10;;
69207;SDS011;56321;47.662;8.878;2023-03-04T05:51:46;44.17;;;20.40;;
69207;SDS011;56321;47.662;8.878;2023-03-04T05:54:11;45.17;;;21.33;;
69207;SDS011;56321;47.662;8.878;2023-03-04T05:56:37;46.35;;;21.38;;
69207;SDS011;56321;47.662;8.878;2023-03-04T05:59:02;52.17;;;23.07;;
69207;SDS011;56321;47.662;8.878;2023-03-04T06:01:27;53.63;;;24.57;;
69207;SDS011;56321;47.662;8.878;2023-03-04T06:03:54;50.75;;;24.80;;
69207;SDS011;56321;47.662;8.878;2023-03-04T06:06:19;49.60;;;24.03;;
69207;SDS011;56321;47.662;8.878;2023-03-04T06:08:44;49.83;;;24.37;;
69207;SDS011;56321;47.662;8.878;2023-03-04T06:11:10;48.07;;;23.40;;
69207;SDS011;56321;47.662;8.878;2023-03-04T06:13:35;47.53;;;22.43;;
69207;SDS011;56321;47.662;8.878;2023-03-04T06:16:02;50.75;;;23.58;;
69207;SDS011;56321;47.662;8.878;2023-03-04T06:18:27;48.90;;;21.77;;
69207;SDS011;56321;47.662;8.878;2023-03-04T06:20:57;47.78;;;22.15;;
69207;SDS011;56321;47.662;8.878;2023-03-04T06:23:24;49.28;;;23.80;;
69207;SDS011;56321;47.662;8.878;2023-03-04T06:25:54;47.05;;;22.08;;
69207;SDS011;56321;47.662;8.878;2023-03-04T06:28:20;44.40;;;20.93;;
69207;SDS011;56321;47.662;8.878;2023-03-04T06:30:46;48.83;;;21.55;;
69207;SDS011;56321;47.662;8.878;2023-03-04T06:33:12;46.80;;;22.07;;
69207;SDS011;56321;47.662;8.878;2023-03-04T06:35:37;46.43;;;21.40;;
69207;SDS011;56321;47.662;8.878;2023-03-04T06:38:02;48.00;;;21.60;;
69207;SDS011;56321;47.662;8.878;2023-03-04T06:40:28;47.60;;;21.93;;
69207;SDS011;56321;47.662;8.878;2023-03-04T06:42:53;47.57;;;22.07;;
69207;SDS011;56321;47.662;8.878;2023-03-04T06:45:19;47.80;;;22.03;;
69207;SDS011;56321;47.662;8.878;2023-03-04T06:47:44;47.07;;;21.07;;
69207;SDS011;56321;47.662;8.878;2023-03-04T06:50:10;47.43;;;21.97;;
69207;SDS011;56321;47.662;8.878;2023-03-04T06:52:37;46.22;;;21.40;;
69207;SDS011;56321;47.662;8.878;2023-03-04T06:55:03;47.53;;;21.52;;
69207;SDS011;56321;47.662;8.878;2023-03-04T06:57:29;49.35;;;22.23;;
69207;SDS011;56321;47.662;8.878;2023-03-04T06:59:54;46.27;;;21.80;;
69207;SDS011;56321;47.662;8.878;2023-03-04T07:02:19;43.90;;;21.33;;
69207;SDS011;56321;47.662;8.878;2023-03-04T07:04:45;48.50;;;23.60;;
69207;SDS011;56321;47.662;8.878;2023-03-04T07:07:10;45.28;;;20.98;;
69207;SDS011;56321;47.662;8.878;2023-03-04T07:09:36;47.20;;;21.20;;
69207;SDS011;56321;47.662;8.878;2023-03-04T07:12:01;47.40;;;23.00;;
69207;SDS011;56321;47.662;8.878;2023-03-04T07:14:28;44.95;;;21.20;;
69207;SDS011;56321;47.662;8.878;2023-03-04T07:16:53;46.00;;;21.73;;
69207;SDS011;56321;47.662;8.878;2023-03-04T07:19:19;47.20;;;21.70;;
69207;SDS011;56321;47.662;8.878;2023-03-04T07:21:44;47.97;;;22.57;;
69207;SDS011;56321;47.662;8.878;2023-03-04T07:24:10;47.67;;;21.85;;
69207;SDS011;56321;47.662;8.878;2023-03-04T07:26:36;46.17;;;22.57;;
69207;SDS011;56321;47.662;8.878;2023-03-04T07:29:02;50.78;;;24.30;;
69207;SDS011;56321;47.662;8.878;2023-03-04T07:31:29;45.60;;;22.40;;
69207;SDS011;56321;47.662;8.878;2023-03-04T07:33:57;48.47;;;23.83;;
69207;SDS011;56321;47.662;8.878;2023-03-04T07:36:23;47.97;;;23.67;;
69207;SDS011;56321;47.662;8.878;2023-03-04T07:38:49;43.73;;;22.10;;
69207;SDS011;56321;47.662;8.878;2023-03-04T07:41:16;43.63;;;21.98;;
69207;SDS011;56321;47.662;8.878;2023-03-04T07:43:42;41.75;;;20.83;;
69207;SDS011;56321;47.662;8.878;2023-03-04T07:46:08;41.97;;;21.08;;
69207;SDS011;56321;47.662;8.878;2023-03-04T07:48:34;45.00;;;21.80;;
69207;SDS011;56321;47.662;8.878;2023-03-04T07:51:04;46.50;;;22.02;;
69207;SDS011;56321;47.662;8.878;2023-03-04T07:53:30;43.33;;;21.17;;
69207;SDS011;56321;47.662;8.878;2023-03-04T07:55:56;42.60;;;21.10;;
69207;SDS011;56321;47.662;8.878;2023-03-04T07:58:21;42.73;;;21.63;;
69207;SDS011;56321;47.662;8.878;2023-03-04T08:00:46;43.42;;;21.83;;
69207;SDS011;56321;47.662;8.878;2023-03-04T08:03:12;42.30;;;22.60;;
69207;SDS011;56321;47.662;8.878;2023-03-04T08:05:40;43.77;;;21.80;;
69207;SDS011;56321;47.662;8.878;2023-03-04T08:08:06;43.50;;;20.27;;
69207;SDS011;56321;47.662;8.878;2023-03-04T08:10:31;40.93;;;21.07;;
69207;SDS011;56321;47.662;8.878;2023-03-04T08:12:56;41.43;;;21.30;;
69207;SDS011;56321;47.662;8.878;2023-03-04T08:15:22;46.50;;;23.43;;
69207;SDS011;56321;47.662;8.878;2023-03-04T08:17:48;48.83;;;23.83;;
69207;SDS011;56321;47.662;8.878;2023-03-04T08:20:14;44.30;;;21.60;;
69207;SDS011;56321;47.662;8.878;2023-03-04T08:22:39;40.17;;;21.60;;
69207;SDS011;56321;47.662;8.878;2023-03-04T08:25:05;40.77;;;21.70;;
69207;SDS011;56321;47.662;8.878;2023-03-04T08:27:30;40.92;;;22.65;;
69207;SDS011;56321;47.662;8.878;2023-03-04T08:29:56;50.67;;;28.33;;
69207;SDS011;56321;47.662;8.878;2023-03-04T08:32:21;40.20;;;22.13;;
69207;SDS011;56321;47.662;8.878;2023-03-04T08:34:46;40.80;;;21.73;;
69207;SDS011;56321;47.662;8.878;2023-03-04T08:37:12;44.70;;;22.97;;
69207;SDS011;56321;47.662;8.878;2023-03-04T08:39:37;41.27;;;22.77;;
69207;SDS011;56321;47.662;8.878;2023-03-04T08:42:02;41.38;;;23.17;;
69207;SDS011;56321;47.662;8.878;2023-03-04T08:44:28;38.13;;;21.73;;
69207;SDS011;56321;47.662;8.878;2023-03-04T08:46:53;37.30;;;21.73;;
69207;SDS011;56321;47.662;8.878;2023-03-04T08:49:18;37.80;;;21.70;;
69207;SDS011;56321;47.662;8.878;2023-03-04T08:51:44;36.13;;;21.50;;
69207;SDS011;56321;47.662;8.878;2023-03-04T08:54:10;38.28;;;22.60;;
69207;SDS011;56321;47.662;8.878;2023-03-04T08:56:35;35.57;;;21.53;;
69207;SDS011;56321;47.662;8.878;2023-03-04T08:59:00;36.83;;;22.67;;
69207;SDS011;56321;47.662;8.878;2023-03-04T09:01:26;36.55;;;22.65;;
69207;SDS011;56321;47.662;8.878;2023-03-04T09:03:51;35.63;;;21.63;;
69207;SDS011;56321;47.662;8.878;2023-03-04T09:06:17;38.77;;;22.90;;
69207;SDS011;56321;47.662;8.878;2023-03-04T09:08:43;36.63;;;22.70;;
69207;SDS011;56321;47.662;8.878;2023-03-04T09:11:09;35.97;;;22.40;;
69207;SDS011;56321;47.662;8.878;2023-03-04T09:13:35;37.60;;;22.63;;
69207;SDS011;56321;47.662;8.878;2023-03-04T09:16:01;38.17;;;22.90;;
69207;SDS011;56321;47.662;8.878;2023-03-04T09:18:26;38.55;;;23.88;;
69207;SDS011;56321;47.662;8.878;2023-03-04T09:20:52;40.07;;;23.70;;
69207;SDS011;56321;47.662;8.878;2023-03-04T09:23:18;39.78;;;24.20;;
69207;SDS011;56321;47.662;8.878;2023-03-04T09:25:45;38.42;;;23.58;;
69207;SDS011;56321;47.662;8.878;2023-03-04T09:28:11;39.58;;;24.48;;
69207;SDS011;56321;47.662;8.878;2023-03-04T09:30:38;37.20;;;24.40;;
69207;SDS011;56321;47.662;8.878;2023-03-04T09:33:03;39.97;;;24.50;;
69207;SDS011;56321;47.662;8.878;2023-03-04T09:35:28;40.10;;;24.67;;
69207;SDS011;56321;47.662;8.878;2023-03-04T09:37:54;38.70;;;24.47;;
69207;SDS011;56321;47.662;8.878;2023-03-04T09:40:21;38.38;;;24.45;;
69207;SDS011;56321;47.662;8.878;2023-03-04T09:42:50;38.90;;;25.20;;
69207;SDS011;56321;47.662;8.878;2023-03-04T09:45:20;39.22;;;25.20;;
69207;SDS011;56321;47.662;8.878;2023-03-04T09:47:49;39.57;;;25.53;;
69207;SDS011;56321;47.662;8.878;2023-03-04T09:50:17;38.97;;;25.38;;
69207;SDS011;56321;47.662;8.878;2023-03-04T09:55:22;41.78;;;27.05;;
69207;SDS011;56321;47.662;8.878;2023-03-04T10:05:35;38.80;;;26.37;;
69207;SDS011;56321;47.662;8.878;2023-03-04T10:08:16;38.25;;;26.23;;
69207;SDS011;56321;47.662;8.878;2023-03-04T10:10:51;40.60;;;26.25;;
69207;SDS011;56321;47.662;8.878;2023-03-04T10:14:03;37.83;;;26.88;;
69207;SDS011;56321;47.662;8.878;2023-03-04T10:16:32;42.25;;;26.80;;
69207;SDS011;56321;47.662;8.878;2023-03-04T10:21:49;41.22;;;26.73;;
69207;SDS011;56321;47.662;8.878;2023-03-04T10:24:19;39.28;;;27.48;;
69207;SDS011;56321;47.662;8.878;2023-03-04T10:26:50;46.53;;;28.95;;
69207;SDS011;56321;47.662;8.878;2023-03-04T10:29:20;41.60;;;28.58;;
69207;SDS011;56321;47.662;8.878;2023-03-04T10:31:48;41.10;;;28.00;;
69207;SDS011;56321;47.662;8.878;2023-03-04T10:34:14;41.17;;;28.80;;
69207;SDS011;56321;47.662;8.878;2023-03-04T10:36:55;40.90;;;28.20;;
69207;SDS011;56321;47.662;8.878;2023-03-04T10:39:31;43.13;;;29.15;;
69207;SDS011;56321;47.662;8.878;2023-03-04T10:42:00;42.38;;;30.20;;
69207;SDS011;56321;47.662;8.878;2023-03-04T10:44:28;45.03;;;29.98;;
69207;SDS011;56321;47.662;8.878;2023-03-04T10:46:55;41.80;;;28.75;;
69207;SDS011;56321;47.662;8.878;2023-03-04T10:49:22;42.60;;;28.80;;
69207;SDS011;56321;47.662;8.878;2023-03-04T10:54:28;42.10;;;30.33;;
69207;SDS011;56321;47.662;8.878;2023-03-04T10:56:58;45.80;;;32.55;;
69207;SDS011;56321;47.662;8.878;2023-03-04T10:59:38;42.63;;;30.75;;
69207;SDS011;56321;47.662;8.878;2023-03-04T11:04:40;42.17;;;30.73;;
69207;SDS011;56321;47.662;8.878;2023-03-04T11:07:09;47.33;;;33.00;;
69207;SDS011;56321;47.662;8.878;2023-03-04T11:09:35;45.42;;;32.13;;
69207;SDS011;56321;47.662;8.878;2023-03-04T11:12:01;45.70;;;32.45;;
69207;SDS011;56321;47.662;8.878;2023-03-04T11:14:34;45.50;;;33.10;;
69207;SDS011;56321;47.662;8.878;2023-03-04T11:17:17;46.27;;;33.00;;
69207;SDS011;56321;47.662;8.878;2023-03-04T11:19:55;44.92;;;33.08;;
69207;SDS011;56321;47.662;8.878;2023-03-04T11:22:26;45.65;;;33.60;;
69207;SDS011;56321;47.662;8.878;2023-03-04T11:24:55;45.13;;;33.00;;
69207;SDS011;56321;47.662;8.878;2023-03-04T11:27:24;46.25;;;33.35;;
69207;SDS011;56321;47.662;8.878;2023-03-04T11:30:03;47.50;;;33.47;;
69207;SDS011;56321;47.662;8.878;2023-03-04T11:32:44;45.55;;;33.20;;
69207;SDS011;56321;47.662;8.878;2023-03-04T11:35:30;44.83;;;32.92;;
69207;SDS011;56321;47.662;8.878;2023-03-04T11:40:42;43.60;;;31.70;;
69207;SDS011;56321;47.662;8.878;2023-03-04T11:45:51;44.17;;;31.73;;
69207;SDS011;56321;47.662;8.878;2023-03-04T11:48:35;42.55;;;32.17;;
69207;SDS011;56321;47.662;8.878;2023-03-04T11:56:59;44.87;;;31.47;;
69207;SDS011;56321;47.662;8.878;2023-03-04T11:59:33;44.70;;;32.03;;
69207;SDS011;56321;47.662;8.878;2023-03-04T12:04:49;42.38;;;32.15;;
69207;SDS011;56321;47.662;8.878;2023-03-04T12:10:14;46.23;;;34.97;;
69207;SDS011;56321;47.662;8.878;2023-03-04T12:15:31;46.70;;;32.65;;
69207;SDS011;56321;47.662;8.878;2023-03-04T12:20:58;45.83;;;33.58;;
69207;SDS011;56321;47.662;8.878;2023-03-04T12:23:41;47.03;;;33.37;;
69207;SDS011;56321;47.662;8.878;2023-03-04T12:32:17;46.85;;;31.20;;
69207;SDS011;56321;47.662;8.878;2023-03-04T12:35:02;46.47;;;32.90;;
69207;SDS011;56321;47.662;8.878;2023-03-04T12:56:59;43.67;;;26.97;;
69207;SDS011;56321;47.662;8.878;2023-03-04T12:59:28;44.90;;;28.38;;
69207;SDS011;56321;47.662;8.878;2023-03-04T13:07:35;42.50;;;26.00;;
69207;SDS011;56321;47.662;8.878;2023-03-04T13:10:12;44.23;;;26.70;;
69207;SDS011;56321;47.662;8.878;2023-03-04T13:12:50;42.03;;;25.25;;
69207;SDS011;56321;47.662;8.878;2023-03-04T13:23:00;39.92;;;22.63;;
69207;SDS011;56321;47.662;8.878;2023-03-04T13:25:46;35.92;;;22.08;;
69207;SDS011;56321;47.662;8.878;2023-03-04T13:28:33;40.97;;;22.50;;
69207;SDS011;56321;47.662;8.878;2023-03-04T13:31:06;39.80;;;22.30;;
69207;SDS011;56321;47.662;8.878;2023-03-04T13:36:01;36.23;;;21.00;;
69207;SDS011;56321;47.662;8.878;2023-03-04T13:48:42;35.03;;;20.60;;
69207;SDS011;56321;47.662;8.878;2023-03-04T14:02:01;37.25;;;20.80;;
69207;SDS011;56321;47.662;8.878;2023-03-04T14:04:50;37.85;;;20.33;;
69207;SDS011;56321;47.662;8.878;2023-03-04T14:07:28;35.00;;;19.00;;
69207;SDS011;56321;47.662;8.878;2023-03-04T14:09:58;34.00;;;19.48;;
69207;SDS011;56321;47.662;8.878;2023-03-04T14:12:24;38.50;;;19.07;;
69207;SDS011;56321;47.662;8.878;2023-03-04T14:14:52;31.65;;;16.30;;
69207;SDS011;56321;47.662;8.878;2023-03-04T14:17:24;29.20;;;16.20;;
69207;SDS011;56321;47.662;8.878;2023-03-04T14:19:52;28.33;;;14.15;;
69207;SDS011;56321;47.662;8.878;2023-03-04T14:22:23;30.57;;;16.33;;
69207;SDS011;56321;47.662;8.878;2023-03-04T14:24:59;31.80;;;15.95;;
69207;SDS011;56321;47.662;8.878;2023-03-04T14:27:24;36.35;;;20.17;;
69207;SDS011;56321;47.662;8.878;2023-03-04T14:29:54;31.25;;;17.23;;
69207;SDS011;56321;47.662;8.878;2023-03-04T14:32:20;33.50;;;19.03;;
69207;SDS011;56321;47.662;8.878;2023-03-04T14:34:47;36.33;;;19.48;;
69207;SDS011;56321;47.662;8.878;2023-03-04T14:37:21;37.85;;;20.05;;
69207;SDS011;56321;47.662;8.878;2023-03-04T14:39:49;35.00;;;19.60;;
69207;SDS011;56321;47.662;8.878;2023-03-04T14:42:18;38.13;;;21.00;;
69207;SDS011;56321;47.662;8.878;2023-03-04T14:44:47;36.17;;;19.85;;
69207;SDS011;56321;47.662;8.878;2023-03-04T14:49:41;34.90;;;20.10;;
69207;SDS011;56321;47.662;8.878;2023-03-04T14:52:24;36.57;;;20.47;;
69207;SDS011;56321;47.662;8.878;2023-03-04T14:57:38;35.10;;;19.63;;
69207;SDS011;56321;47.662;8.878;2023-03-04T15:00:15;34.93;;;18.53;;
69207;SDS011;56321;47.662;8.878;2023-03-04T15:02:53;36.38;;;20.90;;
69207;SDS011;56321;47.662;8.878;2023-03-04T15:05:32;34.70;;;19.50;;
69207;SDS011;56321;47.662;8.878;2023-03-04T15:08:03;35.85;;;19.83;;
69207;SDS011;56321;47.662;8.878;2023-03-04T15:10:34;35.28;;;19.38;;
69207;SDS011;56321;47.662;8.878;2023-03-04T15:13:03;35.47;;;19.40;;
69207;SDS011;56321;47.662;8.878;2023-03-04T15:20:57;36.03;;;19.30;;
69207;SDS011;56321;47.662;8.878;2023-03-04T15:23:30;35.58;;;19.05;;
69207;SDS011;56321;47.662;8.878;2023-03-04T15:26:00;34.80;;;18.70;;
69207;SDS011;56321;47.662;8.878;2023-03-04T15:28:34;33.58;;;17.38;;
69207;SDS011;56321;47.662;8.878;2023-03-04T15:31:01;34.95;;;18.05;;
69207;SDS011;56321;47.662;8.878;2023-03-04T15:33:27;33.97;;;17.77;;
69207;SDS011;56321;47.662;8.878;2023-03-04T15:35:54;32.93;;;17.57;;
69207;SDS011;56321;47.662;8.878;2023-03-04T15:38:22;29.80;;;16.33;;
69207;SDS011;56321;47.662;8.878;2023-03-04T15:40:48;33.65;;;18.63;;
69207;SDS011;56321;47.662;8.878;2023-03-04T15:43:15;37.93;;;18.33;;
69207;SDS011;56321;47.662;8.878;2023-03-04T15:45:42;38.80;;;20.23;;
69207;SDS011;56321;47.662;8.878;2023-03-04T15:48:12;33.75;;;17.88;;
69207;SDS011;56321;47.662;8.878;2023-03-04T15:50:41;37.67;;;18.85;;
69207;SDS011;56321;47.662;8.878;2023-03-04T15:53:31;34.88;;;18.90;;
69207;SDS011;56321;47.662;8.878;2023-03-04T15:56:01;36.23;;;19.40;;
69207;SDS011;56321;47.662;8.878;2023-03-04T15:58:28;38.70;;;19.98;;
69207;SDS011;56321;47.662;8.878;2023-03-04T16:00:54;38.85;;;19.83;;
69207;SDS011;56321;47.662;8.878;2023-03-04T16:03:19;47.10;;;23.17;;
69207;SDS011;56321;47.662;8.878;2023-03-04T16:05:46;61.50;;;30.15;;
69207;SDS011;56321;47.662;8.878;2023-03-04T16:08:14;53.10;;;26.80;;
69207;SDS011;56321;47.662;8.878;2023-03-04T16:10:42;41.50;;;23.20;;
69207;SDS011;56321;47.662;8.878;2023-03-04T16:13:11;40.65;;;20.50;;
69207;SDS011;56321;47.662;8.878;2023-03-04T16:15:39;40.00;;;21.42;;
69207;SDS011;56321;47.662;8.878;2023-03-04T16:18:05;40.27;;;20.43;;
69207;SDS011;56321;47.662;8.878;2023-03-04T16:20:32;35.63;;;18.52;;